sensor_id;sensor_type;location;lat;lon;timestamp;pressure;altitude;pressure_sealevel;temperature;humidity
54262;BME280;40174;52.364;6.452;2023-07-13T00:02:18;101105.44;;;16.12;100.00
54262;BME280;40174;52.364;6.452;2023-07-13T00:04:45;101106.41;;;16.11;100.00
54262;BME280;40174;52.364;6.452;2023-07-13T00:07:12;101104.44;;;16.13;100.00
54262;BME280;40174;52.364;6.452;2023-07-13T00:09:40;101103.91;;;16.10;100.00
54262;BME280;40174;52.364;6.452;2023-07-13T00:12:23;101100.56;;;16.08;100.00
54262;BME280;40174;52.364;6.452;2023-07-13T00:14:50;101106.75;;;16.08;100.00
54262;BME280;40174;52.364;6.452;2023-07-13T00:17:17;101100.56;;;16.08;100.00
54262;BME280;40174;52.364;6.452;2023-07-13T00:19:44;101102.56;;;16.06;100.00
54262;BME280;40174;52.364;6.452;2023-07-13T00:22:11;101098.50;;;16.02;100.00
54262;BME280;40174;52.364;6.452;2023-07-13T00:24:38;101090.81;;;15.98;100.00
54262;BME280;40174;52.364;6.452;2023-07-13T00:27:07;101096.81;;;16.00;100.00
54262;BME280;40174;52.364;6.452;2023-07-13T00:29:36;101096.69;;;16.02;100.00
54262;BME280;40174;52.364;6.452;2023-07-13T00:32:03;101098.97;;;15.97;100.00
54262;BME280;40174;52.364;6.452;2023-07-13T00:34:31;101104.91;;;15.91;100.00
54262;BME280;40174;52.364;6.452;2023-07-13T00:36:58;101100.03;;;15.86;100.00
54262;BME280;40174;52.364;6.452;2023-07-13T00:39:25;101104.91;;;15.91;100.00
54262;BME280;40174;52.364;6.452;2023-07-13T00:41:52;101101.69;;;15.87;100.00
54262;BME280;40174;52.364;6.452;2023-07-13T00:44:20;101115.31;;;15.84;100.00
54262;BME280;40174;52.364;6.452;2023-07-13T00:46:50;101112.09;;;15.80;100.00
54262;BME280;40174;52.364;6.452;2023-07-13T00:49:19;101112.28;;;15.79;100.00
54262;BME280;40174;52.364;6.452;2023-07-13T00:51:58;101105.81;;;15.82;100.00
54262;BME280;40174;52.364;6.452;2023-07-13T00:54:30;101108.34;;;15.83;100.00
54262;BME280;40174;52.364;6.452;2023-07-13T00:57:01;101114.78;;;15.80;100.00
54262;BME280;40174;52.364;6.452;2023-07-13T00:59:29;101114.25;;;15.77;100.00
54262;BME280;40174;52.364;6.452;2023-07-13T01:01:58;101120.72;;;15.74;100.00
54262;BME280;40174;52.364;6.452;2023-07-13T01:04:25;101118.88;;;15.75;100.00
54262;BME280;40174;52.364;6.452;2023-07-13T01:06:52;101111.59;;;15.77;100.00
54262;BME280;40174;52.364;6.452;2023-07-13T01:09:20;101119.31;;;15.70;100.00
54262;BME280;40174;52.364;6.452;2023-07-13T01:11:48;101116.41;;;15.64;100.00
54262;BME280;40174;52.364;6.452;2023-07-13T01:14:15;101116.84;;;15.59;100.00
54262;BME280;40174;52.364;6.452;2023-07-13T01:16:44;101123.00;;;15.59;100.00
54262;BME280;40174;52.364;6.452;2023-07-13T01:19:24;101119.81;;;15.56;100.00
54262;BME280;40174;52.364;6.452;2023-07-13T01:21:56;101126.44;;;15.52;100.00
54262;BME280;40174;52.364;6.452;2023-07-13T01:24:23;101130.22;;;15.49;100.00
54262;BME280;40174;52.364;6.452;2023-07-13T01:26:51;101127.56;;;15.49;100.00
54262;BME280;40174;52.364;6.452;2023-07-13T01:29:18;101130.91;;;15.51;100.00
54262;BME280;40174;52.364;6.452;2023-07-13T01:31:45;101123.53;;;15.45;100.00
54262;BME280;40174;52.364;6.452;2023-07-13T01:34:12;101123.34;;;15.47;100.00
54262;BME280;40174;52.364;6.452;2023-07-13T01:36:39;101112.41;;;15.50;100.00
54262;BME280;40174;52.364;6.452;2023-07-13T01:39:08;101114.53;;;15.46;100.00
54262;BME280;40174;52.364;6.452;2023-07-13T01:41:34;101116.22;;;15.47;100.00
54262;BME280;40174;52.364;6.452;2023-07-13T01:44:01;101121.56;;;15.37;100.00
54262;BME280;40174;52.364;6.452;2023-07-13T01:46:29;101117.25;;;15.36;100.00
54262;BME280;40174;52.364;6.452;2023-07-13T01:48:56;101116.16;;;15.29;100.00
54262;BME280;40174;52.364;6.452;2023-07-13T01:51:23;101112.66;;;15.29;100.00
54262;BME280;40174;52.364;6.452;2023-07-13T01:53:50;101115.16;;;15.30;100.00
54262;BME280;40174;52.364;6.452;2023-07-13T01:56:18;101111.81;;;15.28;100.00
54262;BME280;40174;52.364;6.452;2023-07-13T01:58:45;101112.94;;;15.26;100.00
54262;BME280;40174;52.364;6.452;2023-07-13T02:01:12;101113.94;;;15.25;100.00
54262;BME280;40174;52.364;6.452;2023-07-13T02:03:39;101111.41;;;15.23;100.00
54262;BME280;40174;52.364;6.452;2023-07-13T02:06:06;101101.34;;;15.17;100.00
54262;BME280;40174;52.364;6.452;2023-07-13T02:08:33;101106.97;;;15.14;100.00
54262;BME280;40174;52.364;6.452;2023-07-13T02:11:00;101111.59;;;15.12;100.00
54262;BME280;40174;52.364;6.452;2023-07-13T02:13:28;101110.47;;;15.14;100.00
54262;BME280;40174;52.364;6.452;2023-07-13T02:15:55;101119.28;;;15.15;100.00
54262;BME280;40174;52.364;6.452;2023-07-13T02:18:22;101108.63;;;15.15;100.00
54262;BME280;40174;52.364;6.452;2023-07-13T02:20:48;101116.63;;;15.15;100.00
54262;BME280;40174;52.364;6.452;2023-07-13T02:23:15;101120.28;;;15.14;100.00
54262;BME280;40174;52.364;6.452;2023-07-13T02:25:42;101128.09;;;15.15;100.00
54262;BME280;40174;52.364;6.452;2023-07-13T02:28:09;101129.09;;;15.14;100.00
54262;BME280;40174;52.364;6.452;2023-07-13T02:30:37;101130.94;;;15.14;100.00
54262;BME280;40174;52.364;6.452;2023-07-13T02:33:05;101122.38;;;15.10;100.00
54262;BME280;40174;52.364;6.452;2023-07-13T02:35:33;101123.38;;;15.09;100.00
54262;BME280;40174;52.364;6.452;2023-07-13T02:38:00;101116.94;;;15.12;100.00
54262;BME280;40174;52.364;6.452;2023-07-13T02:40:26;101130.38;;;15.10;100.00
54262;BME280;40174;52.364;6.452;2023-07-13T02:42:53;101123.66;;;15.06;100.00
54262;BME280;40174;52.364;6.452;2023-07-13T02:45:20;101114.16;;;15.04;100.00
54262;BME280;40174;52.364;6.452;2023-07-13T02:47:48;101128.97;;;15.06;100.00
54262;BME280;40174;52.364;6.452;2023-07-13T02:50:17;101133.03;;;15.10;100.00
54262;BME280;40174;52.364;6.452;2023-07-13T02:52:44;101129.41;;;15.11;100.00
54262;BME280;40174;52.364;6.452;2023-07-13T02:55:10;101125.19;;;15.09;100.00
54262;BME280;40174;52.364;6.452;2023-07-13T02:57:37;101127.84;;;15.09;100.00
54262;BME280;40174;52.364;6.452;2023-07-13T03:00:05;101121.31;;;15.03;100.00
54262;BME280;40174;52.364;6.452;2023-07-13T03:02:33;101129.59;;;15.00;100.00
54262;BME280;40174;52.364;6.452;2023-07-13T03:05:03;101122.03;;;14.95;100.00
54262;BME280;40174;52.364;6.452;2023-07-13T03:07:31;101132.38;;;14.99;100.00
54262;BME280;40174;52.364;6.452;2023-07-13T03:09:58;101138.13;;;14.94;100.00
54262;BME280;40174;52.364;6.452;2023-07-13T03:12:33;101133.94;;;14.91;100.00
54262;BME280;40174;52.364;6.452;2023-07-13T03:15:03;101134.09;;;14.90;100.00
54262;BME280;40174;52.364;6.452;2023-07-13T03:17:31;101142.19;;;14.88;100.00
54262;BME280;40174;52.364;6.452;2023-07-13T03:19:58;101132.94;;;14.92;100.00
54262;BME280;40174;52.364;6.452;2023-07-13T03:22:27;101132.41;;;14.89;100.00
54262;BME280;40174;52.364;6.452;2023-07-13T03:24:55;101134.22;;;14.88;100.00
54262;BME280;40174;52.364;6.452;2023-07-13T03:27:21;101136.44;;;14.93;100.00
54262;BME280;40174;52.364;6.452;2023-07-13T03:29:49;101138.72;;;14.88;100.00
54262;BME280;40174;52.364;6.452;2023-07-13T03:32:17;101139.00;;;14.85;100.00
54262;BME280;40174;52.364;6.452;2023-07-13T03:34:44;101146.41;;;14.81;100.00
54262;BME280;40174;52.364;6.452;2023-07-13T03:37:12;101142.09;;;14.80;100.00
54262;BME280;40174;52.364;6.452;2023-07-13T03:39:41;101147.25;;;14.82;100.00
54262;BME280;40174;52.364;6.452;2023-07-13T03:42:08;101148.94;;;14.83;100.00
54262;BME280;40174;52.364;6.452;2023-07-13T03:44:35;101154.53;;;14.80;100.00
54262;BME280;40174;52.364;6.452;2023-07-13T03:47:03;101157.63;;;14.75;100.00
54262;BME280;40174;52.364;6.452;2023-07-13T03:49:31;101157.38;;;14.78;100.00
54262;BME280;40174;52.364;6.452;2023-07-13T03:51:58;101162.81;;;14.76;100.00
54262;BME280;40174;52.364;6.452;2023-07-13T03:54:25;101164.66;;;14.76;100.00
54262;BME280;40174;52.364;6.452;2023-07-13T03:56:53;101162.13;;;14.74;100.00
54262;BME280;40174;52.364;6.452;2023-07-13T03:59:21;101161.41;;;14.72;100.00
54262;BME280;40174;52.364;6.452;2023-07-13T04:01:48;101161.97;;;14.76;100.00
54262;BME280;40174;52.364;6.452;2023-07-13T04:04:15;101163.38;;;14.70;100.00
54262;BME280;40174;52.364;6.452;2023-07-13T04:06:42;101163.53;;;14.69;100.00
54262;BME280;40174;52.364;6.452;2023-07-13T04:09:11;101166.34;;;14.67;100.00
54262;BME280;40174;52.364;6.452;2023-07-13T04:11:37;101184.13;;;14.67;100.00
54262;BME280;40174;52.364;6.452;2023-07-13T04:14:07;101178.09;;;14.65;100.00
54262;BME280;40174;52.364;6.452;2023-07-13T04:16:33;101192.09;;;14.67;100.00
54262;BME280;40174;52.364;6.452;2023-07-13T04:19:00;101179.75;;;14.66;100.00
54262;BME280;40174;52.364;6.452;2023-07-13T04:21:29;101182.59;;;14.64;100.00
54262;BME280;40174;52.364;6.452;2023-07-13T04:23:56;101183.00;;;14.60;100.00
54262;BME280;40174;52.364;6.452;2023-07-13T04:26:23;101177.09;;;14.66;100.00
54262;BME280;40174;52.364;6.452;2023-07-13T04:28:51;101183.41;;;14.65;100.00
54262;BME280;40174;52.364;6.452;2023-07-13T04:31:19;101185.38;;;14.63;100.00
54262;BME280;40174;52.364;6.452;2023-07-13T04:33:46;101196.03;;;14.63;100.00
54262;BME280;40174;52.364;6.452;2023-07-13T04:36:14;101185.25;;;14.64;100.00
54262;BME280;40174;52.364;6.452;2023-07-13T04:38:41;101186.78;;;14.67;100.00
54262;BME280;40174;52.364;6.452;2023-07-13T04:41:09;101185.94;;;14.66;100.00
54262;BME280;40174;52.364;6.452;2023-07-13T04:43:36;101193.50;;;14.71;100.00
54262;BME280;40174;52.364;6.452;2023-07-13T04:46:04;101184.66;;;14.70;100.00
54262;BME280;40174;52.364;6.452;2023-07-13T04:48:33;101178.09;;;14.65;100.00
54262;BME280;40174;52.364;6.452;2023-07-13T04:51:00;101191.28;;;14.66;100.00
54262;BME280;40174;52.364;6.452;2023-07-13T04:53:28;101197.13;;;14.70;100.00
54262;BME280;40174;52.364;6.452;2023-07-13T04:55:56;101193.09;;;14.75;100.00
54262;BME280;40174;52.364;6.452;2023-07-13T04:58:24;101194.03;;;14.74;100.00
54262;BME280;40174;52.364;6.452;2023-07-13T05:00:51;101199.09;;;14.78;100.00
54262;BME280;40174;52.364;6.452;2023-07-13T05:03:18;101193.78;;;14.78;100.00
54262;BME280;40174;52.364;6.452;2023-07-13T05:05:56;101202.31;;;14.81;100.00
54262;BME280;40174;52.364;6.452;2023-07-13T05:08:23;101197.28;;;14.78;100.00
54262;BME280;40174;52.364;6.452;2023-07-13T05:10:50;101209.31;;;14.82;100.00
54262;BME280;40174;52.364;6.452;2023-07-13T05:13:17;101216.31;;;14.83;100.00
54262;BME280;40174;52.364;6.452;2023-07-13T05:15:44;101217.00;;;14.85;100.00
54262;BME280;40174;52.364;6.452;2023-07-13T05:18:11;101218.41;;;14.89;100.00
54262;BME280;40174;52.364;6.452;2023-07-13T05:20:37;101211.13;;;14.91;100.00
54262;BME280;40174;52.364;6.452;2023-07-13T05:23:06;101220.75;;;15.12;100.00
54262;BME280;40174;52.364;6.452;2023-07-13T05:25:33;101228.19;;;15.18;100.00
54262;BME280;40174;52.364;6.452;2023-07-13T05:28:00;101217.09;;;15.23;100.00
54262;BME280;40174;52.364;6.452;2023-07-13T05:30:27;101221.69;;;15.30;100.00
54262;BME280;40174;52.364;6.452;2023-07-13T05:32:54;101227.56;;;15.34;100.00
54262;BME280;40174;52.364;6.452;2023-07-13T05:35:20;101226.13;;;15.39;100.00
54262;BME280;40174;52.364;6.452;2023-07-13T05:37:47;101222.91;;;15.46;100.00
54262;BME280;40174;52.364;6.452;2023-07-13T05:40:15;101226.22;;;15.57;100.00
54262;BME280;40174;52.364;6.452;2023-07-13T05:42:42;101225.81;;;15.52;100.00
54262;BME280;40174;52.364;6.452;2023-07-13T05:45:09;101233.25;;;15.58;100.00
54262;BME280;40174;52.364;6.452;2023-07-13T05:47:36;101233.19;;;15.68;100.00
54262;BME280;40174;52.364;6.452;2023-07-13T05:50:03;101232.91;;;15.71;100.00
54262;BME280;40174;52.364;6.452;2023-07-13T05:52:30;101229.41;;;15.71;100.00
54262;BME280;40174;52.364;6.452;2023-07-13T05:54:57;101235.72;;;15.70;100.00
54262;BME280;40174;52.364;6.452;2023-07-13T05:57:25;101242.03;;;15.78;100.00
54262;BME280;40174;52.364;6.452;2023-07-13T05:59:52;101246.22;;;15.81;100.00
54262;BME280;40174;52.364;6.452;2023-07-13T06:02:19;101244.25;;;15.83;100.00
54262;BME280;40174;52.364;6.452;2023-07-13T06:04:46;101258.28;;;15.85;100.00
54262;BME280;40174;52.364;6.452;2023-07-13T06:07:12;101247.31;;;15.88;100.00
54262;BME280;40174;52.364;6.452;2023-07-13T06:09:39;101249.66;;;15.91;100.00
54262;BME280;40174;52.364;6.452;2023-07-13T06:12:07;101255.09;;;15.99;100.00
54262;BME280;40174;52.364;6.452;2023-07-13T06:14:36;101253.00;;;16.03;100.00
54262;BME280;40174;52.364;6.452;2023-07-13T06:17:03;101255.03;;;16.09;100.00
54262;BME280;40174;52.364;6.452;2023-07-13T06:19:30;101260.63;;;16.16;100.00
54262;BME280;40174;52.364;6.452;2023-07-13T06:21:56;101269.91;;;16.12;100.00
54262;BME280;40174;52.364;6.452;2023-07-13T06:24:23;101260.78;;;16.14;100.00
54262;BME280;40174;52.364;6.452;2023-07-13T06:26:50;101271.53;;;16.23;100.00
54262;BME280;40174;52.364;6.452;2023-07-13T06:29:17;101270.94;;;16.29;100.00
54262;BME280;40174;52.364;6.452;2023-07-13T06:31:45;101280.84;;;16.36;100.00
54262;BME280;40174;52.364;6.452;2023-07-13T06:34:12;101278.41;;;16.43;100.00
54262;BME280;40174;52.364;6.452;2023-07-13T06:36:39;101286.28;;;16.45;100.00
54262;BME280;40174;52.364;6.452;2023-07-13T06:39:06;101288.50;;;16.49;100.00
54262;BME280;40174;52.364;6.452;2023-07-13T06:41:33;101291.41;;;16.56;100.00
54262;BME280;40174;52.364;6.452;2023-07-13T06:44:02;101285.59;;;16.60;100.00
54262;BME280;40174;52.364;6.452;2023-07-13T06:46:29;101295.84;;;16.65;100.00
54262;BME280;40174;52.364;6.452;2023-07-13T06:48:57;101292.09;;;16.76;100.00
54262;BME280;40174;52.364;6.452;2023-07-13T06:51:24;101288.41;;;16.87;100.00
54262;BME280;40174;52.364;6.452;2023-07-13T06:53:51;101291.81;;;16.97;100.00
54262;BME280;40174;52.364;6.452;2023-07-13T06:56:18;101300.75;;;17.06;100.00
54262;BME280;40174;52.364;6.452;2023-07-13T06:58:45;101299.38;;;17.01;100.00
54262;BME280;40174;52.364;6.452;2023-07-13T07:01:11;101298.25;;;17.04;100.00
54262;BME280;40174;52.364;6.452;2023-07-13T07:03:38;101298.28;;;17.12;100.00
54262;BME280;40174;52.364;6.452;2023-07-13T07:06:14;101298.25;;;17.30;100.00
54262;BME280;40174;52.364;6.452;2023-07-13T07:08:41;101306.19;;;17.40;100.00
54262;BME280;40174;52.364;6.452;2023-07-13T07:11:11;101302.03;;;17.45;100.00
54262;BME280;40174;52.364;6.452;2023-07-13T07:13:38;101296.44;;;17.57;100.00
54262;BME280;40174;52.364;6.452;2023-07-13T07:16:04;101300.31;;;17.62;100.00
54262;BME280;40174;52.364;6.452;2023-07-13T07:18:32;101307.16;;;17.83;100.00
54262;BME280;40174;52.364;6.452;2023-07-13T07:20:58;101306.19;;;17.92;100.00
54262;BME280;40174;52.364;6.452;2023-07-13T07:23:27;101304.19;;;17.94;100.00
54262;BME280;40174;52.364;6.452;2023-07-13T07:25:54;101318.25;;;17.96;100.00
54262;BME280;40174;52.364;6.452;2023-07-13T07:28:21;101304.56;;;17.99;100.00
54262;BME280;40174;52.364;6.452;2023-07-13T07:30:48;101309.78;;;18.09;100.00
54262;BME280;40174;52.364;6.452;2023-07-13T07:33:15;101313.16;;;18.19;100.00
54262;BME280;40174;52.364;6.452;2023-07-13T07:35:43;101311.22;;;18.30;100.00
54262;BME280;40174;52.364;6.452;2023-07-13T07:38:10;101313.00;;;18.21;100.00
54262;BME280;40174;52.364;6.452;2023-07-13T07:40:38;101308.44;;;18.13;100.00
54262;BME280;40174;52.364;6.452;2023-07-13T07:43:06;101308.63;;;18.12;100.00
54262;BME280;40174;52.364;6.452;2023-07-13T07:45:33;101308.16;;;18.16;100.00
54262;BME280;40174;52.364;6.452;2023-07-13T07:47:59;101318.56;;;18.27;100.00
54262;BME280;40174;52.364;6.452;2023-07-13T07:50:27;101317.41;;;18.38;100.00
54262;BME280;40174;52.364;6.452;2023-07-13T07:52:54;101310.22;;;18.47;100.00
54262;BME280;40174;52.364;6.452;2023-07-13T07:55:23;101300.53;;;18.46;100.00
54262;BME280;40174;52.364;6.452;2023-07-13T07:57:51;101300.69;;;18.44;100.00
54262;BME280;40174;52.364;6.452;2023-07-13T08:00:19;101309.94;;;18.58;100.00
54262;BME280;40174;52.364;6.452;2023-07-13T08:02:46;101304.94;;;18.72;100.00
54262;BME280;40174;52.364;6.452;2023-07-13T08:05:14;101317.81;;;18.76;100.00
54262;BME280;40174;52.364;6.452;2023-07-13T08:07:41;101312.97;;;18.72;100.00
54262;BME280;40174;52.364;6.452;2023-07-13T08:10:08;101308.97;;;18.76;100.00
54262;BME280;40174;52.364;6.452;2023-07-13T08:12:35;101311.31;;;18.79;100.00
54262;BME280;40174;52.364;6.452;2023-07-13T08:15:05;101302.16;;;18.98;100.00
54262;BME280;40174;52.364;6.452;2023-07-13T08:17:32;101303.34;;;18.95;100.00
54262;BME280;40174;52.364;6.452;2023-07-13T08:19:59;101298.97;;;18.94;100.00
54262;BME280;40174;52.364;6.452;2023-07-13T08:22:26;101305.31;;;19.26;100.00
54262;BME280;40174;52.364;6.452;2023-07-13T08:24:53;101311.00;;;19.47;100.00
54262;BME280;40174;52.364;6.452;2023-07-13T08:27:21;101317.84;;;19.66;100.00
54262;BME280;40174;52.364;6.452;2023-07-13T08:29:49;101322.53;;;19.64;100.00
54262;BME280;40174;52.364;6.452;2023-07-13T08:32:18;101322.19;;;19.59;100.00
54262;BME280;40174;52.364;6.452;2023-07-13T08:34:45;101326.94;;;19.49;100.00
54262;BME280;40174;52.364;6.452;2023-07-13T08:37:12;101326.94;;;19.49;100.00
54262;BME280;40174;52.364;6.452;2023-07-13T08:39:39;101316.69;;;19.52;100.00
54262;BME280;40174;52.364;6.452;2023-07-13T08:42:12;101316.66;;;19.85;100.00
54262;BME280;40174;52.364;6.452;2023-07-13T08:44:54;101321.63;;;20.05;100.00
54262;BME280;40174;52.364;6.452;2023-07-13T08:47:25;101317.53;;;20.17;100.00
54262;BME280;40174;52.364;6.452;2023-07-13T08:49:52;101311.63;;;20.30;100.00
54262;BME280;40174;52.364;6.452;2023-07-13T08:52:29;101318.75;;;20.46;100.00
54262;BME280;40174;52.364;6.452;2023-07-13T08:55:04;101317.59;;;20.40;100.00
54262;BME280;40174;52.364;6.452;2023-07-13T08:57:33;101308.13;;;20.61;100.00
54262;BME280;40174;52.364;6.452;2023-07-13T09:00:01;101305.44;;;20.61;100.00
54262;BME280;40174;52.364;6.452;2023-07-13T09:02:39;101300.25;;;20.59;100.00
54262;BME280;40174;52.364;6.452;2023-07-13T09:05:12;101306.81;;;20.48;100.00
54262;BME280;40174;52.364;6.452;2023-07-13T09:07:56;101312.94;;;20.34;100.00
54262;BME280;40174;52.364;6.452;2023-07-13T09:10:28;101315.50;;;20.27;100.00
54262;BME280;40174;52.364;6.452;2023-07-13T09:13:07;101309.31;;;20.19;100.00
54262;BME280;40174;52.364;6.452;2023-07-13T09:15:39;101316.09;;;20.38;100.00
54262;BME280;40174;52.364;6.452;2023-07-13T09:18:12;101309.72;;;20.39;100.00
54262;BME280;40174;52.364;6.452;2023-07-13T09:20:44;101314.75;;;20.33;100.00
54262;BME280;40174;52.364;6.452;2023-07-13T09:23:15;101322.94;;;20.40;100.00
54262;BME280;40174;52.364;6.452;2023-07-13T09:25:45;101325.47;;;20.42;100.00
54262;BME280;40174;52.364;6.452;2023-07-13T09:28:20;101324.47;;;20.43;100.00
54262;BME280;40174;52.364;6.452;2023-07-13T09:30:52;101331.53;;;20.35;100.00
54262;BME280;40174;52.364;6.452;2023-07-13T09:33:23;101325.41;;;20.27;100.00
54262;BME280;40174;52.364;6.452;2023-07-13T09:35:50;101321.81;;;20.34;100.00
54262;BME280;40174;52.364;6.452;2023-07-13T09:38:18;101313.22;;;20.47;100.00
54262;BME280;40174;52.364;6.452;2023-07-13T09:41:04;101322.91;;;20.57;100.00
54262;BME280;40174;52.364;6.452;2023-07-13T09:43:36;101311.97;;;20.58;100.00
54262;BME280;40174;52.364;6.452;2023-07-13T09:46:03;101321.72;;;20.51;100.00
54262;BME280;40174;52.364;6.452;2023-07-13T09:48:35;101313.78;;;20.34;100.00
54262;BME280;40174;52.364;6.452;2023-07-13T09:51:09;101319.69;;;20.22;100.00
54262;BME280;40174;52.364;6.452;2023-07-13T09:53:41;101326.78;;;20.06;100.00
54262;BME280;40174;52.364;6.452;2023-07-13T09:56:19;101314.94;;;20.01;100.00
54262;BME280;40174;52.364;6.452;2023-07-13T09:58:46;101326.72;;;19.83;100.00
54262;BME280;40174;52.364;6.452;2023-07-13T10:01:13;101328.06;;;19.79;100.00
54262;BME280;40174;52.364;6.452;2023-07-13T10:03:52;101315.47;;;19.80;100.00
54262;BME280;40174;52.364;6.452;2023-07-13T10:06:21;101324.69;;;19.85;100.00
54262;BME280;40174;52.364;6.452;2023-07-13T10:08:49;101327.38;;;19.85;100.00
54262;BME280;40174;52.364;6.452;2023-07-13T10:11:18;101334.75;;;19.91;100.00
54262;BME280;40174;52.364;6.452;2023-07-13T10:13:50;101336.09;;;19.79;100.00
54262;BME280;40174;52.364;6.452;2023-07-13T10:16:18;101346.88;;;19.71;100.00
54262;BME280;40174;52.364;6.452;2023-07-13T10:18:49;101344.34;;;19.37;100.00
54262;BME280;40174;52.364;6.452;2023-07-13T10:21:19;101340.50;;;19.23;100.00
54262;BME280;40174;52.364;6.452;2023-07-13T10:23:49;101356.06;;;19.11;100.00
54262;BME280;40174;52.364;6.452;2023-07-13T10:26:21;101367.13;;;19.00;100.00
54262;BME280;40174;52.364;6.452;2023-07-13T10:28:52;101369.63;;;19.01;100.00
54262;BME280;40174;52.364;6.452;2023-07-13T10:31:21;101378.16;;;19.05;100.00
54262;BME280;40174;52.364;6.452;2023-07-13T10:33:49;101381.16;;;19.10;100.00
54262;BME280;40174;52.364;6.452;2023-07-13T10:36:23;101377.66;;;19.09;100.00
54262;BME280;40174;52.364;6.452;2023-07-13T10:38:53;101388.88;;;19.21;100.00
54262;BME280;40174;52.364;6.452;2023-07-13T10:41:24;101377.50;;;19.44;100.00
54262;BME280;40174;52.364;6.452;2023-07-13T10:43:54;101383.22;;;19.49;100.00
54262;BME280;40174;52.364;6.452;2023-07-13T10:46:25;101384.72;;;19.84;100.00
54262;BME280;40174;52.364;6.452;2023-07-13T10:48:57;101388.50;;;20.14;100.00
54262;BME280;40174;52.364;6.452;2023-07-13T10:51:25;101383.56;;;20.34;100.00
54262;BME280;40174;52.364;6.452;2023-07-13T10:54:16;101388.84;;;20.59;100.00
54262;BME280;40174;52.364;6.452;2023-07-13T10:56:44;101394.09;;;20.84;100.00
54262;BME280;40174;52.364;6.452;2023-07-13T10:59:15;101389.84;;;20.89;100.00
54262;BME280;40174;52.364;6.452;2023-07-13T11:01:51;101398.34;;;21.01;100.00
54262;BME280;40174;52.364;6.452;2023-07-13T11:04:23;101398.72;;;21.21;100.00
54262;BME280;40174;52.364;6.452;2023-07-13T11:06:53;101397.03;;;21.43;100.00
54262;BME280;40174;52.364;6.452;2023-07-13T11:09:38;101387.75;;;21.69;100.00
54262;BME280;40174;52.364;6.452;2023-07-13T11:12:27;101386.63;;;21.63;100.00
54262;BME280;40174;52.364;6.452;2023-07-13T11:15:06;101381.09;;;21.94;97.36
54262;BME280;40174;52.364;6.452;2023-07-13T11:17:46;101378.97;;;21.90;98.55
54262;BME280;40174;52.364;6.452;2023-07-13T11:20:33;101382.28;;;21.62;97.32
54262;BME280;40174;52.364;6.452;2023-07-13T11:23:15;101388.09;;;21.28;95.63
54262;BME280;40174;52.364;6.452;2023-07-13T11:25:43;101379.81;;;21.29;96.71
54262;BME280;40174;52.364;6.452;2023-07-13T11:28:21;101379.94;;;21.36;99.71
54262;BME280;40174;52.364;6.452;2023-07-13T11:30:59;101396.97;;;21.51;95.61
54262;BME280;40174;52.364;6.452;2023-07-13T11:33:30;101389.63;;;21.83;94.59
54262;BME280;40174;52.364;6.452;2023-07-13T11:36:13;101384.81;;;22.08;91.57
54262;BME280;40174;52.364;6.452;2023-07-13T11:38:42;101389.84;;;22.26;91.36
54262;BME280;40174;52.364;6.452;2023-07-13T11:41:15;101392.63;;;22.18;87.75
54262;BME280;40174;52.364;6.452;2023-07-13T11:43:44;101396.53;;;22.30;91.07
54262;BME280;40174;52.364;6.452;2023-07-13T11:46:15;101388.22;;;22.61;89.43
54262;BME280;40174;52.364;6.452;2023-07-13T11:48:44;101395.63;;;22.74;84.04
54262;BME280;40174;52.364;6.452;2023-07-13T11:51:19;101395.78;;;22.88;81.76
54262;BME280;40174;52.364;6.452;2023-07-13T11:53:49;101396.09;;;23.14;79.42
54262;BME280;40174;52.364;6.452;2023-07-13T11:56:17;101412.13;;;23.22;80.22
54262;BME280;40174;52.364;6.452;2023-07-13T11:58:44;101405.41;;;22.97;72.78
54262;BME280;40174;52.364;6.452;2023-07-13T12:01:18;101401.13;;;23.02;74.72
54262;BME280;40174;52.364;6.452;2023-07-13T12:03:48;101398.16;;;23.12;74.92
54262;BME280;40174;52.364;6.452;2023-07-13T12:06:26;101398.13;;;23.34;74.50
54262;BME280;40174;52.364;6.452;2023-07-13T12:08:56;101394.41;;;23.13;73.32
54262;BME280;40174;52.364;6.452;2023-07-13T12:11:23;101411.06;;;22.80;79.08
54262;BME280;40174;52.364;6.452;2023-07-13T12:13:50;101423.56;;;22.52;80.00
54262;BME280;40174;52.364;6.452;2023-07-13T12:16:28;101406.44;;;22.15;82.48
54262;BME280;40174;52.364;6.452;2023-07-13T12:18:55;101407.94;;;22.03;85.56
54262;BME280;40174;52.364;6.452;2023-07-13T12:21:31;101411.97;;;21.84;87.04
54262;BME280;40174;52.364;6.452;2023-07-13T12:23:58;101410.44;;;21.51;87.85
54262;BME280;40174;52.364;6.452;2023-07-13T12:26:28;101418.94;;;21.32;87.70
54262;BME280;40174;52.364;6.452;2023-07-13T12:28:56;101416.56;;;21.14;91.75
54262;BME280;40174;52.364;6.452;2023-07-13T12:31:26;101431.31;;;20.95;100.00
54262;BME280;40174;52.364;6.452;2023-07-13T12:33:58;101438.25;;;20.81;100.00
54262;BME280;40174;52.364;6.452;2023-07-13T12:36:29;101434.28;;;20.69;100.00
54262;BME280;40174;52.364;6.452;2023-07-13T12:38:59;101443.75;;;20.57;100.00
54262;BME280;40174;52.364;6.452;2023-07-13T12:41:29;101462.75;;;20.30;100.00
54262;BME280;40174;52.364;6.452;2023-07-13T12:43:56;101449.38;;;20.06;100.00
54262;BME280;40174;52.364;6.452;2023-07-13T12:46:24;101456.97;;;19.94;100.00
54262;BME280;40174;52.364;6.452;2023-07-13T12:48:54;101451.94;;;19.83;100.00
54262;BME280;40174;52.364;6.452;2023-07-13T12:51:26;101445.59;;;19.76;100.00